createdAt,value
2022-09-23T00:03:42.117Z,9.03
2022-09-23T00:08:45.254Z,8.96
2022-09-23T00:13:51.963Z,8.89
2022-09-23T00:18:54.899Z,8.87
2022-09-23T00:23:57.734Z,8.83
2022-09-23T00:29:00.549Z,8.76
2022-09-23T00:34:03.457Z,8.67
2022-09-23T00:39:06.656Z,8.63
2022-09-23T00:44:43.384Z,8.67
2022-09-23T00:49:52.345Z,8.69
2022-09-23T00:54:59.024Z,8.69
2022-09-23T01:00:02.090Z,8.65
2022-09-23T01:05:06.986Z,8.61
2022-09-23T01:10:13.779Z,8.59
2022-09-23T01:15:27.031Z,8.52
2022-09-23T01:20:55.913Z,8.40
2022-09-23T01:26:10.840Z,8.33
2022-09-23T01:31:40.505Z,8.31
2022-09-23T01:36:47.962Z,8.35
2022-09-23T01:41:59.771Z,8.44
2022-09-23T01:47:21.409Z,8.49
2022-09-23T01:52:35.058Z,8.45
2022-09-23T01:57:49.355Z,8.37
2022-09-23T02:03:07.904Z,8.32
2022-09-23T02:08:42.786Z,8.29
2022-09-23T02:13:48.550Z,8.27
2022-09-23T02:19:19.025Z,8.20
2022-09-23T02:24:28.166Z,8.17
2022-09-23T02:29:43.943Z,8.14
2022-09-23T02:34:54.209Z,8.06
2022-09-23T02:40:26.657Z,7.98
2022-09-23T02:45:29.601Z,7.93
2022-09-23T02:50:34.341Z,7.94
2022-09-23T02:55:37.031Z,7.90
2022-09-23T03:00:57.742Z,7.87
2022-09-23T03:06:14.081Z,7.88
2022-09-23T03:11:18.145Z,7.95
2022-09-23T03:16:43.755Z,7.94
2022-09-23T03:22:05.519Z,7.90
2022-09-23T03:27:13.991Z,7.87
2022-09-23T03:32:20.824Z,7.83
2022-09-23T03:37:31.515Z,7.77
2022-09-23T03:42:34.970Z,7.73
2022-09-23T03:47:39.574Z,7.73
2022-09-23T03:52:42.211Z,7.72
2022-09-23T03:57:46.469Z,7.67
2022-09-23T04:02:49.927Z,7.62
2022-09-23T04:07:53.202Z,7.59
2022-09-23T04:12:56.676Z,7.56
2022-09-23T04:17:59.361Z,7.58
2022-09-23T04:23:02.126Z,7.50
2022-09-23T04:28:04.904Z,7.44
2022-09-23T04:33:07.736Z,7.44
2022-09-23T04:38:13.499Z,7.44
2022-09-23T04:43:16.975Z,7.48
2022-09-23T04:48:19.896Z,7.48
2022-09-23T04:53:22.615Z,7.47
2022-09-23T04:58:25.385Z,7.49
2022-09-23T05:03:30.274Z,7.48
2022-09-23T05:08:33.143Z,7.47
2022-09-23T05:13:36.883Z,7.55
2022-09-23T05:18:42.800Z,7.67
2022-09-23T05:23:53.540Z,7.78
2022-09-23T05:28:57.138Z,7.84
2022-09-23T05:34:02.393Z,7.85
2022-09-23T05:39:08.850Z,7.86
2022-09-23T05:44:11.883Z,7.92
2022-09-23T05:49:14.619Z,7.88
2022-09-23T05:54:17.647Z,7.84
2022-09-23T05:59:20.479Z,7.95
2022-09-23T06:04:24.258Z,8.05
2022-09-23T06:09:27.318Z,8.21
2022-09-23T06:14:30.209Z,8.35
2022-09-23T06:20:17.169Z,8.48
2022-09-23T06:25:27.215Z,8.57
2022-09-23T06:30:30.084Z,8.62
2022-09-23T06:35:49.000Z,8.64
2022-09-23T06:40:58.754Z,8.52
2022-09-23T06:46:37.005Z,8.59
2022-09-23T06:51:43.335Z,8.75
2022-09-23T06:56:56.745Z,9.00
2022-09-23T07:02:04.214Z,9.23
2022-09-23T07:07:07.488Z,9.52
2022-09-23T07:12:10.402Z,9.85
2022-09-23T07:17:13.568Z,10.17
2022-09-23T07:22:16.437Z,10.28
2022-09-23T07:27:20.281Z,10.37
2022-09-23T07:32:23.487Z,10.42
2022-09-23T07:37:29.080Z,10.72
2022-09-23T08:12:58.761Z,12.94
2022-09-23T08:18:04.301Z,13.07
2022-09-23T08:23:07.376Z,13.01
2022-09-23T08:28:10.205Z,12.78
2022-09-23T08:33:14.475Z,12.62
2022-09-23T08:38:18.836Z,12.56
2022-09-23T08:43:31.427Z,12.49
2022-09-23T08:48:50.534Z,12.42
2022-09-23T08:53:55.347Z,12.36
2022-09-23T08:59:12.352Z,12.36
2022-09-23T09:04:35.800Z,12.41
2022-09-23T09:09:51.507Z,12.51
2022-09-23T09:14:57.138Z,12.65
2022-09-23T09:20:13.317Z,12.80
2022-09-23T09:25:35.840Z,12.93
2022-09-23T09:30:39.455Z,13.02
2022-09-23T09:36:26.766Z,13.10
2022-09-23T09:41:31.583Z,13.23
2022-09-23T09:47:09.162Z,13.44
2022-09-23T09:52:26.938Z,13.87
2022-09-23T09:57:36.177Z,14.38
2022-09-23T10:02:40.043Z,14.91
2022-09-23T10:07:42.765Z,15.53
2022-09-23T10:12:56.750Z,15.97
2022-09-23T10:18:02.646Z,16.30
2022-09-23T10:23:08.826Z,16.60
2022-09-23T10:28:37.231Z,16.84
2022-09-23T10:33:59.386Z,16.90
2022-09-23T10:39:25.217Z,16.44
2022-09-23T10:45:20.384Z,16.04
2022-09-23T10:50:45.200Z,15.64
2022-09-23T10:56:06.311Z,15.41
2022-09-23T11:01:46.645Z,15.33
2022-09-23T11:07:07.723Z,15.37
2022-09-23T11:12:45.880Z,15.45
2022-09-23T11:17:51.450Z,15.47
2022-09-23T11:23:10.068Z,15.49
2022-09-23T11:28:46.806Z,15.58
2022-09-23T11:34:27.363Z,15.55
2022-09-23T11:39:37.523Z,15.38
2022-09-23T11:44:50.412Z,15.07
2022-09-23T11:50:29.795Z,14.75
2022-09-23T11:55:52.882Z,14.50
2022-09-23T12:01:10.071Z,14.30
2022-09-23T12:06:20.262Z,14.13
2022-09-23T12:11:40.678Z,14.02
2022-09-23T12:17:02.836Z,13.91
2022-09-23T12:22:14.419Z,13.83
2022-09-23T12:27:27.974Z,13.76
2022-09-23T12:32:32.387Z,13.75
2022-09-23T12:37:41.893Z,13.77
2022-09-23T12:42:47.124Z,13.81
2022-09-23T12:47:50.538Z,13.85
2022-09-23T12:52:53.404Z,13.88
2022-09-23T12:57:56.079Z,13.95
2022-09-23T13:03:19.804Z,14.05
2022-09-23T13:08:24.943Z,14.19
2022-09-23T13:13:36.122Z,14.28
2022-09-23T13:19:00.179Z,14.38
2022-09-23T13:24:20.054Z,14.51
2022-09-23T13:29:41.103Z,14.65
2022-09-23T13:34:55.278Z,14.82
2022-09-23T13:40:21.243Z,14.98
2022-09-23T13:45:25.945Z,15.23
2022-09-23T13:50:34.704Z,15.39
2022-09-23T13:55:41.358Z,15.47
2022-09-23T14:00:44.533Z,15.65
2022-09-23T14:05:48.854Z,15.81
2022-09-23T14:10:53.804Z,15.93
2022-09-23T14:16:00.582Z,15.96
2022-09-23T14:21:04.496Z,15.93
2022-09-23T14:26:07.237Z,15.87
2022-09-23T14:31:14.497Z,15.75
2022-09-23T14:36:57.409Z,15.66
2022-09-23T14:42:00.194Z,15.53
2022-09-23T14:47:03.277Z,15.37
2022-09-23T14:52:07.097Z,15.22
2022-09-23T14:57:25.547Z,15.11
2022-09-23T15:03:04.492Z,14.98
2022-09-23T15:08:07.693Z,14.87
2022-09-23T15:13:17.939Z,14.84
2022-09-23T15:18:25.474Z,14.84
2022-09-23T15:23:43.173Z,14.88
2022-09-23T15:28:47.176Z,14.88
2022-09-23T15:33:51.064Z,14.84
2022-09-23T15:38:57.365Z,14.79
2022-09-23T15:44:33.337Z,14.69
2022-09-23T15:49:41.525Z,14.60
2022-09-23T15:54:44.297Z,14.51
2022-09-23T15:59:47.289Z,14.43
2022-09-23T16:04:51.520Z,14.36
2022-09-23T16:09:54.942Z,14.29
2022-09-23T16:14:57.664Z,14.27
2022-09-23T16:20:00.841Z,14.27
2022-09-23T16:25:06.227Z,14.21
2022-09-23T16:30:10.362Z,14.10
2022-09-23T16:35:13.066Z,14.02
2022-09-23T16:40:20.615Z,13.95
2022-09-23T16:45:24.479Z,13.86
2022-09-23T16:50:29.417Z,13.78
2022-09-23T16:55:32.177Z,13.70
2022-09-23T17:01:07.326Z,13.65
2022-09-23T17:06:13.381Z,13.66
2022-09-23T17:11:19.837Z,13.67
2022-09-23T17:16:28.444Z,13.66
2022-09-23T17:21:34.501Z,13.63
2022-09-23T17:26:39.347Z,13.57
2022-09-23T17:31:42.482Z,13.53
2022-09-23T17:36:45.976Z,13.56
2022-09-23T17:41:48.668Z,13.59
2022-09-23T17:46:52.860Z,13.63
2022-09-23T17:51:56.954Z,13.64
2022-09-23T17:56:59.995Z,13.60
2022-09-23T18:02:02.870Z,13.53
2022-09-23T18:07:05.722Z,13.46
2022-09-23T18:12:08.470Z,13.43
2022-09-23T18:17:11.346Z,13.43
2022-09-23T18:22:14.149Z,13.43
2022-09-23T18:27:17.254Z,13.38
2022-09-23T18:32:21.703Z,13.32
2022-09-23T18:37:24.546Z,13.27
2022-09-23T18:42:27.670Z,13.25
2022-09-23T18:47:49.537Z,13.22
2022-09-23T18:52:53.128Z,13.19
2022-09-23T18:57:57.564Z,13.15
2022-09-23T19:03:00.672Z,13.10
2022-09-23T19:08:03.385Z,13.13
2022-09-23T19:13:06.097Z,13.18
2022-09-23T19:18:08.781Z,13.18
2022-09-23T19:23:11.457Z,13.17
2022-09-23T19:28:14.561Z,13.19
2022-09-23T19:33:17.261Z,13.21
2022-09-23T19:38:21.446Z,13.21
2022-09-23T19:43:25.272Z,13.16
2022-09-23T19:48:28.204Z,13.05
2022-09-23T19:53:30.860Z,12.89
2022-09-23T19:58:36.546Z,12.82
2022-09-23T20:03:39.285Z,12.81
2022-09-23T20:08:42.225Z,12.82
2022-09-23T20:13:47.262Z,12.81
2022-09-23T20:18:52.650Z,12.79
2022-09-23T20:23:56.393Z,12.75
2022-09-23T20:29:01.820Z,12.73
2022-09-23T20:34:07.161Z,12.69
2022-09-23T20:39:10.461Z,12.71
2022-09-23T20:44:14.014Z,12.66
2022-09-23T20:49:17.913Z,12.65
2022-09-23T20:54:22.131Z,12.66
2022-09-23T20:59:27.304Z,12.65
2022-09-23T21:04:30.842Z,12.63
2022-09-23T21:09:33.548Z,12.59
2022-09-23T21:14:36.447Z,12.56
2022-09-23T21:19:39.116Z,12.53
2022-09-23T21:30:05.025Z,12.49
2022-09-23T21:35:09.978Z,12.42
2022-09-23T21:40:31.447Z,12.40
2022-09-23T21:45:34.204Z,12.44
2022-09-23T21:50:42.565Z,12.49
2022-09-23T21:55:48.946Z,12.49
2022-09-23T22:00:51.695Z,12.48
2022-09-23T22:06:04.434Z,12.48
2022-09-23T22:11:34.241Z,12.49
2022-09-23T22:16:37.229Z,12.47
2022-09-23T22:21:42.557Z,12.37
2022-09-23T22:26:45.998Z,12.26
2022-09-23T22:32:07.740Z,12.20
2022-09-23T22:37:10.523Z,12.16
2022-09-23T22:42:13.416Z,12.08
2022-09-23T22:47:18.074Z,11.99
2022-09-23T22:52:24.509Z,11.89
2022-09-23T22:57:27.349Z,11.81
2022-09-23T23:02:30.185Z,11.76
2022-09-23T23:07:34.206Z,11.75
2022-09-23T23:12:37.059Z,11.72
2022-09-23T23:17:41.431Z,11.71
2022-09-23T23:22:44.174Z,11.66
2022-09-23T23:27:46.862Z,11.59
2022-09-23T23:32:49.870Z,11.53
2022-09-23T23:37:52.529Z,11.46
2022-09-23T23:42:55.874Z,11.37
2022-09-23T23:47:58.647Z,11.29
2022-09-23T23:53:01.321Z,11.19
2022-09-23T23:58:04.051Z,11.14
